Time;durP1;ratioP1;P1;durP2;ratioP2;P2;SDS_P1;SDS_P2;PMS_P1;PMS_P2;Temp;Humidity;BMP_temperature;BMP_pressure;BME280_temperature;BME280_humidity;BME280_pressure;Samples;Min_cycle;Max_cycle;Signal;HPM_P1;HPM_P2
2024/01/29 00:00:31;;;;;;;3.70;2.47;;;6.00;99.90;;;;;;5025871;28;20094;-67
2024/01/29 00:02:57;;;;;;;4.45;2.50;;;5.90;99.90;;;;;;5002013;28;20045;-66
2024/01/29 00:05:22;;;;;;;4.03;2.38;;;5.90;99.90;;;;;;5002144;28;20049;-65
2024/01/29 00:07:48;;;;;;;5.28;2.47;;;5.80;99.90;;;;;;5003306;28;20056;-65
2024/01/29 00:10:14;;;;;;;4.00;2.40;;;5.80;99.90;;;;;;5017142;28;20374;-66
2024/01/29 00:12:40;;;;;;;5.88;2.65;;;5.70;99.90;;;;;;4997998;28;20041;-66
2024/01/29 00:15:07;;;;;;;4.60;2.50;;;5.70;99.90;;;;;;4993178;28;20032;-66
2024/01/29 00:17:32;;;;;;;2.78;2.30;;;5.60;99.90;;;;;;4979734;28;20041;-67
2024/01/29 00:19:58;;;;;;;3.63;2.22;;;5.60;99.90;;;;;;4992870;28;20438;-66
2024/01/29 00:22:24;;;;;;;4.38;2.42;;;5.50;99.90;;;;;;4979654;28;20653;-67
2024/01/29 00:24:50;;;;;;;2.80;2.10;;;5.50;99.90;;;;;;4993353;28;20044;-66
2024/01/29 00:27:16;;;;;;;4.50;2.30;;;5.40;99.90;;;;;;5025961;28;20049;-66
2024/01/29 00:29:41;;;;;;;4.03;2.00;;;5.50;99.90;;;;;;5012156;28;20091;-66
2024/01/29 00:32:07;;;;;;;3.45;2.05;;;5.40;99.90;;;;;;4995092;28;20979;-66
2024/01/29 00:34:33;;;;;;;4.97;2.53;;;5.40;99.90;;;;;;5014567;28;20332;-67
2024/01/29 00:36:59;;;;;;;4.38;2.17;;;5.40;99.90;;;;;;4993564;28;20045;-66
2024/01/29 00:39:25;;;;;;;4.60;2.33;;;5.30;99.90;;;;;;5016513;28;20044;-66
2024/01/29 00:41:51;;;;;;;4.97;2.55;;;5.30;99.90;;;;;;5024931;28;20068;-66
2024/01/29 00:44:17;;;;;;;4.43;2.28;;;5.20;99.90;;;;;;4994817;28;20096;-66
2024/01/29 00:46:43;;;;;;;4.38;2.13;;;5.20;99.90;;;;;;4999383;28;20117;-66
2024/01/29 00:49:09;;;;;;;8.70;3.03;;;5.20;99.90;;;;;;4996220;28;20053;-66
2024/01/29 00:51:35;;;;;;;5.20;2.55;;;5.10;99.90;;;;;;5011895;28;20084;-66
2024/01/29 00:54:02;;;;;;;6.05;2.63;;;5.10;99.90;;;;;;4998884;28;20045;-66
2024/01/29 00:56:28;;;;;;;4.03;2.40;;;5.10;99.90;;;;;;5002915;28;20196;-66
2024/01/29 00:58:54;;;;;;;4.93;2.30;;;5.00;99.90;;;;;;5005303;28;20056;-66
2024/01/29 01:01:19;;;;;;;5.82;2.90;;;5.00;99.90;;;;;;4998377;28;20040;-65
2024/01/29 01:03:45;;;;;;;3.83;2.33;;;4.90;99.90;;;;;;5004000;28;20526;-65
2024/01/29 01:06:11;;;;;;;4.00;2.47;;;4.80;99.90;;;;;;5014740;28;20037;-65
2024/01/29 01:08:37;;;;;;;5.63;2.42;;;4.80;99.90;;;;;;5022744;28;20052;-65
2024/01/29 01:11:03;;;;;;;4.55;2.53;;;4.70;99.90;;;;;;5005715;28;20065;-65
2024/01/29 01:13:29;;;;;;;5.45;2.55;;;4.70;99.90;;;;;;5024900;28;20424;-65
2024/01/29 01:15:55;;;;;;;5.18;2.50;;;4.60;99.90;;;;;;4990499;28;20287;-65
2024/01/29 01:18:20;;;;;;;4.35;2.40;;;4.70;99.90;;;;;;5007558;28;20041;-66
2024/01/29 01:20:46;;;;;;;6.07;3.03;;;4.70;99.90;;;;;;5007231;28;20036;-65
2024/01/29 01:23:12;;;;;;;4.25;2.30;;;4.70;99.90;;;;;;4989280;28;20056;-66
2024/01/29 01:25:41;;;;;;;4.88;2.80;;;4.60;99.90;;;;;;5005355;28;20097;-65
2024/01/29 01:28:08;;;;;;;4.78;2.55;;;4.60;99.90;;;;;;5005428;28;20558;-64
2024/01/29 01:30:34;;;;;;;3.35;2.60;;;4.50;99.90;;;;;;5009276;28;20041;-65
2024/01/29 01:33:00;;;;;;;6.95;3.05;;;4.50;99.90;;;;;;5024894;28;20050;-65
2024/01/29 01:35:26;;;;;;;5.70;2.58;;;4.60;99.90;;;;;;4989893;28;20451;-66
2024/01/29 01:37:52;;;;;;;4.38;2.33;;;4.60;99.90;;;;;;5007339;28;20045;-65
2024/01/29 01:40:18;;;;;;;5.82;2.47;;;4.70;99.90;;;;;;5001828;28;20352;-67
2024/01/29 01:42:44;;;;;;;4.05;2.28;;;4.70;99.90;;;;;;5015828;28;20092;-65
2024/01/29 01:45:11;;;;;;;4.72;2.38;;;4.70;99.90;;;;;;5023194;28;20127;-66
2024/01/29 01:47:37;;;;;;;3.90;2.17;;;4.70;99.90;;;;;;5004349;28;20058;-65
2024/01/29 01:50:07;;;;;;;6.00;2.35;;;4.60;99.90;;;;;;4990577;28;20041;-66
2024/01/29 01:52:34;;;;;;;3.80;2.47;;;4.60;99.90;;;;;;5021012;28;20034;-65
2024/01/29 01:55:00;;;;;;;4.57;2.72;;;4.60;99.90;;;;;;5004671;28;20503;-64
2024/01/29 01:57:28;;;;;;;4.10;2.10;;;4.60;99.90;;;;;;5023833;28;20078;-65
2024/01/29 01:59:55;;;;;;;4.38;2.20;;;4.60;99.90;;;;;;5006791;28;20041;-67
2024/01/29 02:02:21;;;;;;;3.75;1.95;;;4.70;99.90;;;;;;5021810;28;20044;-65
2024/01/29 02:04:47;;;;;;;4.68;2.47;;;4.70;99.90;;;;;;5022595;28;20116;-64
2024/01/29 02:07:13;;;;;;;3.28;2.30;;;4.70;99.90;;;;;;5021747;28;20517;-65
2024/01/29 02:09:39;;;;;;;4.05;2.30;;;4.70;99.90;;;;;;5022266;28;20033;-64
2024/01/29 02:12:07;;;;;;;4.10;2.13;;;4.70;99.90;;;;;;5006800;28;20479;-65
2024/01/29 02:14:33;;;;;;;4.22;2.38;;;4.80;99.90;;;;;;5005018;28;20096;-64
2024/01/29 02:16:59;;;;;;;4.25;1.85;;;4.70;99.90;;;;;;5004802;28;20330;-66
2024/01/29 02:19:25;;;;;;;3.30;1.90;;;4.80;99.90;;;;;;5021312;28;20041;-65
2024/01/29 02:21:52;;;;;;;4.22;2.30;;;4.80;99.90;;;;;;5021785;28;20095;-64
2024/01/29 02:24:18;;;;;;;4.18;2.50;;;4.80;99.90;;;;;;5044197;28;20037;-64
2024/01/29 02:26:47;;;;;;;4.38;2.50;;;4.70;99.90;;;;;;5021835;28;20048;-66
2024/01/29 02:29:14;;;;;;;3.53;2.17;;;4.70;99.90;;;;;;5011608;28;20033;-64
2024/01/29 02:31:40;;;;;;;4.35;2.67;;;4.70;99.90;;;;;;5024485;28;20176;-64
2024/01/29 02:34:09;;;;;;;4.93;2.88;;;4.70;99.90;;;;;;5002187;28;20063;-64
2024/01/29 02:36:35;;;;;;;4.78;2.95;;;4.70;99.90;;;;;;5028449;28;20630;-64
2024/01/29 02:39:01;;;;;;;5.97;2.67;;;4.70;99.90;;;;;;5005011;28;20763;-64
2024/01/29 02:41:26;;;;;;;5.15;2.25;;;4.60;99.90;;;;;;5003869;28;20045;-66
2024/01/29 02:43:52;;;;;;;4.78;2.63;;;4.60;99.90;;;;;;5025327;28;20064;-64
2024/01/29 02:46:18;;;;;;;5.93;2.78;;;4.50;99.90;;;;;;5004620;28;20102;-64
2024/01/29 02:48:44;;;;;;;4.13;2.50;;;4.50;99.90;;;;;;4985251;28;20557;-65
2024/01/29 02:51:10;;;;;;;4.63;2.80;;;4.50;99.90;;;;;;5001624;28;20506;-64
2024/01/29 02:53:35;;;;;;;4.78;2.70;;;4.40;99.90;;;;;;4987332;28;20092;-64
2024/01/29 02:56:02;;;;;;;5.68;2.72;;;4.40;99.90;;;;;;4990034;28;20041;-64
2024/01/29 02:58:29;;;;;;;3.95;2.78;;;4.30;99.90;;;;;;5004066;28;20033;-64
2024/01/29 03:00:55;;;;;;;5.70;2.53;;;4.30;99.90;;;;;;5019220;28;20045;-63
2024/01/29 03:03:21;;;;;;;3.67;2.70;;;4.20;99.90;;;;;;4999556;28;20037;-64
2024/01/29 03:05:47;;;;;;;5.50;2.55;;;4.30;99.90;;;;;;5002400;28;20045;-63
2024/01/29 03:08:16;;;;;;;4.97;2.58;;;4.30;99.90;;;;;;5011612;28;20044;-64
2024/01/29 03:10:42;;;;;;;5.00;2.65;;;4.30;99.90;;;;;;5005092;28;20515;-65
2024/01/29 03:13:08;;;;;;;4.93;2.85;;;4.20;99.90;;;;;;5019673;28;20068;-64
2024/01/29 03:15:34;;;;;;;5.38;2.67;;;4.20;99.90;;;;;;5009570;28;20041;-64
2024/01/29 03:18:00;;;;;;;6.07;3.03;;;4.20;99.90;;;;;;5000050;28;20041;-64
2024/01/29 03:20:28;;;;;;;3.65;2.75;;;4.30;99.90;;;;;;4999879;28;20052;-64
2024/01/29 03:22:54;;;;;;;4.72;2.60;;;4.30;99.90;;;;;;5004487;28;20124;-64
2024/01/29 03:25:20;;;;;;;4.93;2.90;;;4.30;99.90;;;;;;5018903;28;20377;-64
2024/01/29 03:27:46;;;;;;;4.13;2.47;;;4.40;99.90;;;;;;5001053;28;20051;-64
2024/01/29 03:30:12;;;;;;;5.90;3.13;;;4.40;99.90;;;;;;5005441;28;20041;-64
2024/01/29 03:32:38;;;;;;;4.45;2.72;;;4.50;99.90;;;;;;5002371;28;20068;-64
2024/01/29 03:35:04;;;;;;;4.32;2.40;;;4.50;99.90;;;;;;4987133;28;20182;-65
2024/01/29 03:37:30;;;;;;;4.05;2.80;;;4.50;99.90;;;;;;5020685;28;20037;-64
2024/01/29 03:39:56;;;;;;;5.93;3.13;;;4.50;99.90;;;;;;5007644;28;20040;-64
2024/01/29 03:42:22;;;;;;;6.90;2.75;;;4.50;99.90;;;;;;4987408;28;20204;-64
2024/01/29 03:44:48;;;;;;;4.65;2.50;;;4.40;99.90;;;;;;5002722;28;20056;-65
2024/01/29 03:47:14;;;;;;;4.50;2.50;;;4.40;99.90;;;;;;5040023;28;20049;-64
2024/01/29 03:49:40;;;;;;;4.85;2.83;;;4.40;99.90;;;;;;5005114;28;20394;-65
2024/01/29 03:52:06;;;;;;;5.50;3.13;;;4.40;99.90;;;;;;5011878;28;20843;-67
2024/01/29 03:54:32;;;;;;;5.18;3.05;;;4.30;99.90;;;;;;5018084;28;20571;-66
2024/01/29 03:56:57;;;;;;;5.65;2.70;;;4.30;99.90;;;;;;4996706;28;20091;-66
2024/01/29 03:59:23;;;;;;;5.57;2.83;;;4.30;99.90;;;;;;5012910;28;20037;-67
2024/01/29 04:01:49;;;;;;;5.05;2.70;;;4.40;99.90;;;;;;5013638;28;20056;-67
2024/01/29 04:04:15;;;;;;;4.45;2.63;;;4.40;99.90;;;;;;4996357;28;20041;-67
2024/01/29 04:06:43;;;;;;;6.43;3.47;;;4.40;99.90;;;;;;4979468;28;20047;-67
2024/01/29 04:09:10;;;;;;;6.07;3.20;;;4.30;99.90;;;;;;4996021;28;20036;-67
2024/01/29 04:11:36;;;;;;;4.45;2.80;;;4.20;99.90;;;;;;4980789;28;20041;-67
2024/01/29 04:14:02;;;;;;;4.10;2.58;;;4.20;99.90;;;;;;4996249;28;20084;-67
2024/01/29 04:16:28;;;;;;;5.03;2.85;;;4.20;99.90;;;;;;5014072;28;20081;-67
2024/01/29 04:18:54;;;;;;;6.40;3.28;;;4.20;99.90;;;;;;5035647;28;20187;-67
2024/01/29 04:21:20;;;;;;;5.13;3.08;;;4.20;99.90;;;;;;5013759;28;20098;-67
2024/01/29 04:23:46;;;;;;;5.43;3.10;;;4.10;99.90;;;;;;5015753;28;20376;-66
2024/01/29 04:26:11;;;;;;;7.13;3.47;;;4.10;99.90;;;;;;5002796;28;20574;-67
2024/01/29 04:28:38;;;;;;;5.82;3.22;;;4.00;99.90;;;;;;4999924;28;20494;-66
2024/01/29 04:31:04;;;;;;;6.32;3.25;;;4.10;99.90;;;;;;5001183;28;20175;-66
2024/01/29 04:33:29;;;;;;;4.43;2.88;;;4.10;99.90;;;;;;5000518;28;20044;-66
2024/01/29 04:35:55;;;;;;;5.47;3.13;;;4.00;99.90;;;;;;4984174;28;20071;-67
2024/01/29 04:38:21;;;;;;;5.63;3.10;;;4.00;99.90;;;;;;5030994;28;20041;-66
2024/01/29 04:40:47;;;;;;;5.97;3.50;;;4.00;99.90;;;;;;5002467;28;20350;-67
2024/01/29 04:43:16;;;;;;;5.80;3.40;;;4.00;99.90;;;;;;5017817;28;20048;-66
2024/01/29 04:45:42;;;;;;;4.65;3.35;;;4.00;99.90;;;;;;5017574;28;20053;-66
2024/01/29 04:48:08;;;;;;;5.78;3.22;;;4.10;99.90;;;;;;5000535;28;20048;-66
2024/01/29 04:50:34;;;;;;;5.00;3.05;;;4.10;99.90;;;;;;5030979;28;20045;-66
2024/01/29 04:53:00;;;;;;;5.30;3.17;;;4.10;99.90;;;;;;5017147;28;20053;-67
2024/01/29 04:55:26;;;;;;;7.97;3.70;;;4.10;99.90;;;;;;5029793;28;20039;-66
2024/01/29 04:57:52;;;;;;;5.85;3.92;;;4.10;99.90;;;;;;5000740;28;20124;-66
2024/01/29 05:00:18;;;;;;;5.32;3.55;;;4.00;99.90;;;;;;5000077;28;20029;-67
2024/01/29 05:02:47;;;;;;;4.90;3.25;;;4.00;99.90;;;;;;5020697;28;20037;-66
2024/01/29 05:05:14;;;;;;;5.57;4.15;;;3.90;99.90;;;;;;4984466;28;20337;-66
2024/01/29 05:07:40;;;;;;;5.57;3.40;;;3.90;99.90;;;;;;5005267;28;20454;-66
2024/01/29 05:10:07;;;;;;;5.07;3.38;;;3.90;99.90;;;;;;5003204;28;20045;-67
2024/01/29 05:12:33;;;;;;;6.60;3.38;;;4.00;99.90;;;;;;5035344;28;20122;-67
2024/01/29 05:15:02;;;;;;;5.45;3.65;;;4.00;99.90;;;;;;4981593;28;20522;-67
2024/01/29 05:17:28;;;;;;;7.47;3.75;;;4.00;99.90;;;;;;4997703;28;20527;-67
2024/01/29 05:19:54;;;;;;;8.52;3.67;;;4.10;99.90;;;;;;4998324;28;20129;-66
2024/01/29 05:22:21;;;;;;;5.32;3.30;;;4.10;99.90;;;;;;4999617;28;20959;-66
2024/01/29 05:24:47;;;;;;;5.35;3.45;;;4.10;99.90;;;;;;5006160;28;20052;-64
2024/01/29 05:27:13;;;;;;;7.55;3.17;;;4.10;99.90;;;;;;5025794;28;20499;-66
2024/01/29 05:29:42;;;;;;;5.13;3.75;;;4.10;99.90;;;;;;5003686;28;20103;-64
2024/01/29 05:32:08;;;;;;;7.28;3.95;;;4.10;99.90;;;;;;5061475;28;20308;-64
2024/01/29 05:34:34;;;;;;;9.40;4.30;;;4.00;99.90;;;;;;5024323;28;20128;-66
2024/01/29 05:36:59;;;;;;;8.25;3.95;;;4.00;99.90;;;;;;5032541;28;20060;-66
2024/01/29 05:39:25;;;;;;;10.82;4.35;;;4.00;99.90;;;;;;4982099;28;20068;-66
2024/01/29 05:41:51;;;;;;;11.27;4.40;;;4.00;99.90;;;;;;5005659;28;20048;-67
2024/01/29 05:44:17;;;;;;;5.57;3.50;;;3.90;99.90;;;;;;5014173;28;20037;-66
2024/01/29 05:46:43;;;;;;;8.88;4.22;;;3.90;99.90;;;;;;4997221;28;20052;-67
2024/01/29 05:49:09;;;;;;;9.82;4.10;;;3.80;99.90;;;;;;5018151;28;20598;-66
2024/01/29 05:51:35;;;;;;;9.60;4.68;;;3.70;99.90;;;;;;4997677;28;20040;-66
2024/01/29 05:54:01;;;;;;;7.32;3.97;;;3.70;99.90;;;;;;4995175;28;20232;-66
2024/01/29 05:56:27;;;;;;;6.28;4.60;;;3.70;99.90;;;;;;5018482;28;20363;-67
2024/01/29 05:58:53;;;;;;;7.10;4.03;;;3.70;99.90;;;;;;4995443;28;20041;-67
2024/01/29 06:01:19;;;;;;;7.30;4.93;;;3.70;99.90;;;;;;5013509;28;20064;-66
2024/01/29 06:03:44;;;;;;;7.55;4.38;;;3.70;99.90;;;;;;5021070;28;20047;-65
2024/01/29 06:06:10;;;;;;;7.50;4.95;;;3.70;99.90;;;;;;4998011;28;20048;-65
2024/01/29 06:08:37;;;;;;;8.30;5.75;;;3.70;99.90;;;;;;4998328;28;20037;-66
2024/01/29 06:11:05;;;;;;;10.98;6.35;;;3.70;99.90;;;;;;5014721;28;20034;-65
2024/01/29 06:13:31;;;;;;;8.70;5.60;;;3.60;99.90;;;;;;4997567;28;20044;-65
2024/01/29 06:15:58;;;;;;;8.18;5.30;;;3.60;99.90;;;;;;5035197;28;20045;-65
2024/01/29 06:18:23;;;;;;;9.63;5.95;;;3.60;99.90;;;;;;5019265;28;20044;-65
2024/01/29 06:20:49;;;;;;;8.90;6.40;;;3.60;99.90;;;;;;4997750;28;20228;-65
2024/01/29 06:23:15;;;;;;;8.70;6.10;;;3.60;99.90;;;;;;4997570;28;20554;-65
2024/01/29 06:25:41;;;;;;;6.78;5.10;;;3.60;99.90;;;;;;5013533;28;20116;-65
2024/01/29 06:28:07;;;;;;;7.68;4.63;;;3.70;99.90;;;;;;4996862;28;20077;-65
2024/01/29 06:30:33;;;;;;;6.82;4.65;;;3.70;99.90;;;;;;4998829;28;20578;-65
2024/01/29 06:32:59;;;;;;;7.75;4.75;;;3.70;99.90;;;;;;5028345;28;20041;-66
2024/01/29 06:35:25;;;;;;;6.63;4.72;;;3.70;99.90;;;;;;4980442;28;20040;-65
2024/01/29 06:37:50;;;;;;;9.73;4.85;;;3.80;99.90;;;;;;5013532;28;20447;-66
2024/01/29 06:40:16;;;;;;;8.00;4.57;;;3.80;99.90;;;;;;5034210;28;20501;-65
2024/01/29 06:42:42;;;;;;;6.30;4.55;;;3.90;99.90;;;;;;5000512;28;20514;-66
2024/01/29 06:45:08;;;;;;;5.07;4.47;;;3.90;99.90;;;;;;5030207;28;20344;-65
2024/01/29 06:47:34;;;;;;;7.88;4.13;;;3.90;99.90;;;;;;4998496;28;20061;-66
2024/01/29 06:50:00;;;;;;;6.63;4.82;;;4.00;99.90;;;;;;5008590;28;20041;-65
2024/01/29 06:52:26;;;;;;;6.50;4.88;;;4.00;99.90;;;;;;4999344;28;20053;-64
2024/01/29 06:54:52;;;;;;;6.88;5.10;;;4.00;99.90;;;;;;5033350;28;20671;-65
2024/01/29 06:57:18;;;;;;;5.90;4.57;;;3.90;99.90;;;;;;5041284;28;20049;-64
2024/01/29 06:59:44;;;;;;;7.45;4.70;;;4.00;99.90;;;;;;5017949;28;20508;-65
2024/01/29 07:02:10;;;;;;;7.63;4.70;;;4.00;99.90;;;;;;5001769;28;20117;-64
2024/01/29 07:04:36;;;;;;;6.75;4.82;;;3.90;99.90;;;;;;5006316;28;20737;-65
2024/01/29 07:07:02;;;;;;;7.75;4.68;;;3.90;99.90;;;;;;5017968;28;20044;-64
2024/01/29 07:09:28;;;;;;;7.60;5.00;;;3.90;99.90;;;;;;5017372;28;20029;-64
2024/01/29 07:11:54;;;;;;;8.32;5.45;;;3.90;99.90;;;;;;5040380;28;20038;-64
2024/01/29 07:14:20;;;;;;;8.27;5.43;;;3.90;99.90;;;;;;4998913;28;20191;-65
2024/01/29 07:16:46;;;;;;;5.53;4.70;;;3.80;99.90;;;;;;5000629;28;20103;-65
2024/01/29 07:19:13;;;;;;;6.25;4.80;;;3.70;99.90;;;;;;5031940;28;20128;-64
2024/01/29 07:21:41;;;;;;;9.30;5.45;;;3.70;99.90;;;;;;5002387;28;20158;-64
2024/01/29 07:24:07;;;;;;;6.68;5.10;;;3.60;99.90;;;;;;5017116;28;20041;-66
2024/01/29 07:26:33;;;;;;;7.53;5.53;;;3.60;99.90;;;;;;5001906;28;20082;-66
2024/01/29 07:28:58;;;;;;;8.35;5.68;;;3.60;99.90;;;;;;5013828;28;20037;-64
2024/01/29 07:31:24;;;;;;;9.02;5.35;;;3.70;99.90;;;;;;4999829;28;20164;-64
2024/01/29 07:33:50;;;;;;;9.18;5.63;;;3.60;99.90;;;;;;5017637;28;20542;-65
2024/01/29 07:36:15;;;;;;;7.80;5.50;;;3.60;99.90;;;;;;5000077;28;20053;-65
2024/01/29 07:38:41;;;;;;;8.65;5.82;;;3.60;99.90;;;;;;5018700;28;20571;-64
2024/01/29 07:41:08;;;;;;;8.40;5.97;;;3.60;99.90;;;;;;4999716;28;20179;-65
2024/01/29 07:43:33;;;;;;;6.13;5.53;;;3.60;99.90;;;;;;4999084;28;20037;-64
2024/01/29 07:45:59;;;;;;;9.48;6.00;;;3.70;99.90;;;;;;5016511;28;20545;-65
2024/01/29 07:48:25;;;;;;;10.27;5.70;;;3.80;99.90;;;;;;5015324;28;20644;-64
2024/01/29 07:50:51;;;;;;;11.27;6.03;;;3.90;99.90;;;;;;4983458;28;20287;-67
2024/01/29 07:53:16;;;;;;;14.98;6.68;;;3.90;99.90;;;;;;5016765;28;20045;-64
2024/01/29 07:55:42;;;;;;;7.68;6.50;;;4.00;99.90;;;;;;5000405;28;20715;-64
2024/01/29 07:58:08;;;;;;;7.55;5.80;;;4.10;99.90;;;;;;5021648;28;20467;-64
2024/01/29 08:00:34;;;;;;;9.32;6.40;;;4.20;99.90;;;;;;5032627;28;20079;-64
2024/01/29 08:03:00;;;;;;;9.48;6.10;;;4.20;99.90;;;;;;5000715;28;20136;-64
2024/01/29 08:05:25;;;;;;;8.57;5.93;;;4.30;99.90;;;;;;5022376;28;20645;-64
2024/01/29 08:07:51;;;;;;;7.68;6.13;;;4.30;99.90;;;;;;5018264;28;20475;-65
2024/01/29 08:10:17;;;;;;;11.85;5.80;;;4.40;99.90;;;;;;5019654;28;20053;-64
2024/01/29 08:12:42;;;;;;;8.70;6.07;;;4.40;99.90;;;;;;5002055;28;20042;-64
2024/01/29 08:15:08;;;;;;;7.90;5.63;;;4.50;99.90;;;;;;5002805;28;20389;-65
2024/01/29 08:17:34;;;;;;;8.32;6.38;;;4.50;99.90;;;;;;5037225;28;20921;-64
2024/01/29 08:20:00;;;;;;;9.07;6.00;;;4.50;99.90;;;;;;5027803;28;20045;-65
2024/01/29 08:22:26;;;;;;;8.52;6.50;;;4.50;99.90;;;;;;5003624;28;21112;-64
2024/01/29 08:24:51;;;;;;;8.10;6.25;;;4.50;99.90;;;;;;5020280;28;20124;-64
2024/01/29 08:27:17;;;;;;;6.78;5.70;;;4.60;99.90;;;;;;5004641;28;20041;-65
2024/01/29 08:29:43;;;;;;;9.00;6.90;;;4.70;99.90;;;;;;5020614;28;20128;-64
2024/01/29 08:32:09;;;;;;;8.23;6.20;;;4.80;99.90;;;;;;5021058;28;20041;-66
2024/01/29 08:34:34;;;;;;;11.70;6.43;;;4.80;99.90;;;;;;5002745;28;20443;-64
2024/01/29 08:37:00;;;;;;;7.28;5.93;;;4.90;99.90;;;;;;5003562;28;20087;-65
2024/01/29 08:39:26;;;;;;;10.38;6.43;;;5.00;99.90;;;;;;5019756;28;20557;-64
2024/01/29 08:41:54;;;;;;;8.75;6.10;;;5.20;99.90;;;;;;5021335;28;20053;-64
2024/01/29 08:44:20;;;;;;;10.13;6.50;;;5.10;99.90;;;;;;5021192;28;20045;-64
2024/01/29 08:46:46;;;;;;;9.43;6.75;;;5.20;99.90;;;;;;5021480;28;20041;-66
2024/01/29 08:49:14;;;;;;;8.30;5.63;;;5.30;99.90;;;;;;5022216;28;20099;-64
2024/01/29 08:51:40;;;;;;;7.90;6.38;;;5.40;99.90;;;;;;5019545;28;20041;-64
2024/01/29 08:54:06;;;;;;;10.23;6.00;;;5.50;99.90;;;;;;5020740;28;20037;-64
2024/01/29 08:56:32;;;;;;;8.05;6.45;;;5.60;99.90;;;;;;5020206;28;20043;-64
2024/01/29 08:58:58;;;;;;;13.25;5.63;;;5.60;99.90;;;;;;5019586;28;20052;-64
2024/01/29 09:01:24;;;;;;;8.55;5.60;;;5.70;99.90;;;;;;5023257;28;20156;-66
2024/01/29 09:03:51;;;;;;;10.02;6.72;;;5.80;99.90;;;;;;5021343;28;20610;-64
2024/01/29 09:06:20;;;;;;;8.25;6.25;;;5.80;99.90;;;;;;5021230;28;20045;-65
2024/01/29 09:08:45;;;;;;;7.15;6.20;;;5.90;99.90;;;;;;5007903;28;20143;-64
2024/01/29 09:11:11;;;;;;;8.07;6.00;;;6.10;99.90;;;;;;5003934;28;20116;-64
2024/01/29 09:13:37;;;;;;;8.73;7.25;;;6.20;99.90;;;;;;5023084;28;20485;-65
2024/01/29 09:16:03;;;;;;;9.45;6.50;;;6.30;99.90;;;;;;5019712;28;20155;-64
2024/01/29 09:18:29;;;;;;;11.02;6.05;;;6.50;99.90;;;;;;5012992;28;20045;-67
2024/01/29 09:20:55;;;;;;;8.23;6.40;;;6.60;99.90;;;;;;5020706;28;20053;-65
2024/01/29 09:23:21;;;;;;;8.75;6.25;;;6.80;99.90;;;;;;5018595;28;20103;-65
2024/01/29 09:25:47;;;;;;;10.90;6.53;;;6.90;99.90;;;;;;5031840;28;20483;-65
2024/01/29 09:28:12;;;;;;;8.73;6.10;;;6.90;99.90;;;;;;5017666;28;20491;-64
2024/01/29 09:30:38;;;;;;;8.13;6.50;;;7.00;99.90;;;;;;5000495;28;20546;-65
2024/01/29 09:33:04;;;;;;;7.63;5.93;;;7.00;99.90;;;;;;5019998;28;20091;-65
2024/01/29 09:35:30;;;;;;;8.00;6.65;;;7.00;99.90;;;;;;5019293;28;20050;-65
2024/01/29 09:37:56;;;;;;;7.50;6.28;;;7.00;99.90;;;;;;5020129;28;20276;-65
2024/01/29 09:40:22;;;;;;;8.68;6.63;;;7.00;99.90;;;;;;5010801;28;20175;-65
2024/01/29 09:42:50;;;;;;;7.07;6.30;;;7.10;99.90;;;;;;5019285;28;20080;-64
2024/01/29 09:45:24;;;;;;;10.18;6.88;;;7.00;99.90;;;;;;5012418;28;20421;-65
2024/01/29 09:47:52;;;;;;;8.98;6.78;;;7.00;99.90;;;;;;5003001;28;20057;-66
2024/01/29 09:50:19;;;;;;;10.23;6.72;;;7.10;99.90;;;;;;5020440;28;20042;-65
2024/01/29 09:52:51;;;;;;;10.30;6.72;;;7.20;99.90;;;;;;5008645;28;20559;-65
2024/01/29 09:55:17;;;;;;;7.85;6.68;;;7.20;99.90;;;;;;5019403;28;20131;-66
2024/01/29 09:57:43;;;;;;;8.68;6.97;;;7.30;99.90;;;;;;5021776;28;20748;-65
2024/01/29 10:00:12;;;;;;;8.82;6.63;;;7.40;99.90;;;;;;5007437;28;20601;-64
2024/01/29 10:02:40;;;;;;;10.93;6.80;;;7.60;99.90;;;;;;5033907;28;20246;-65
2024/01/29 10:05:11;;;;;;;8.60;6.63;;;8.00;99.90;;;;;;5061618;28;20036;-65
2024/01/29 10:07:38;;;;;;;10.07;6.43;;;8.30;99.90;;;;;;4999515;28;20229;-65
2024/01/29 10:10:13;;;;;;;9.45;6.22;;;8.60;99.90;;;;;;5004208;28;20041;-65
2024/01/29 10:12:39;;;;;;;7.72;6.50;;;8.80;99.90;;;;;;5033883;28;20667;-66
2024/01/29 10:15:05;;;;;;;7.93;6.60;;;8.80;99.90;;;;;;5004479;28;20044;-65
2024/01/29 10:17:32;;;;;;;7.38;6.60;;;8.90;99.90;;;;;;5004906;28;20057;-65
2024/01/29 10:19:58;;;;;;;7.97;6.80;;;9.00;99.90;;;;;;5012012;28;20388;-65
2024/01/29 10:22:27;;;;;;;8.98;7.25;;;9.00;99.90;;;;;;5019064;28;20301;-66
2024/01/29 10:25:03;;;;;;;7.60;6.82;;;9.10;99.90;;;;;;5023555;28;20416;-66
2024/01/29 10:27:30;;;;;;;8.07;6.90;;;9.10;99.90;;;;;;5020698;28;20045;-66
2024/01/29 10:29:56;;;;;;;9.50;6.75;;;9.10;99.90;;;;;;5018103;28;20252;-67
2024/01/29 10:32:23;;;;;;;8.95;7.32;;;9.10;99.90;;;;;;5005160;28;20506;-66
2024/01/29 10:34:49;;;;;;;8.52;6.65;;;9.10;99.90;;;;;;5021168;28;20046;-65
2024/01/29 10:37:16;;;;;;;8.43;7.15;;;9.20;99.90;;;;;;5019832;28;20135;-67
2024/01/29 10:39:42;;;;;;;8.88;6.75;;;9.40;99.90;;;;;;5003098;28;20356;-66
2024/01/29 10:42:11;;;;;;;8.80;6.65;;;9.60;99.90;;;;;;5024527;28;20552;-66
2024/01/29 10:44:39;;;;;;;8.70;6.43;;;9.70;99.90;;;;;;5019736;28;20044;-66
2024/01/29 10:47:25;;;;;;;8.07;6.53;;;10.00;99.90;;;;;;5051587;28;20048;-66
2024/01/29 10:49:53;;;;;;;8.23;6.65;;;9.90;99.90;;;;;;5018096;28;20097;-66
2024/01/29 10:52:21;;;;;;;8.57;7.28;;;10.30;99.90;;;;;;5001864;28;20494;-66
2024/01/29 10:54:47;;;;;;;8.80;6.85;;;10.40;99.90;;;;;;5049493;28;20033;-66
2024/01/29 10:57:14;;;;;;;10.60;7.22;;;10.60;99.90;;;;;;5001994;28;20076;-65
2024/01/29 10:59:42;;;;;;;11.13;7.68;;;10.10;99.90;;;;;;5002660;28;20060;-66
2024/01/29 11:02:12;;;;;;;9.35;7.57;;;9.50;99.90;;;;;;5021646;28;20466;-66
2024/01/29 11:04:37;;;;;;;12.30;8.40;;;9.30;99.90;;;;;;5021084;28;20040;-65
2024/01/29 11:07:22;;;;;;;12.95;8.57;;;9.10;99.90;;;;;;5039717;28;20037;-65
2024/01/29 11:09:59;;;;;;;11.38;9.48;;;9.10;99.90;;;;;;5032526;28;20766;-66
2024/01/29 11:12:27;;;;;;;14.05;8.65;;;8.90;99.90;;;;;;5018092;28;20150;-66
2024/01/29 11:15:00;;;;;;;16.13;10.20;;;9.00;99.90;;;;;;5016879;28;20055;-68
2024/01/29 11:17:27;;;;;;;15.13;9.55;;;9.20;99.90;;;;;;4996961;28;20136;-69
2024/01/29 11:19:53;;;;;;;13.90;9.20;;;9.40;99.90;;;;;;5008212;28;20071;-68
2024/01/29 11:22:19;;;;;;;13.07;9.18;;;9.40;99.90;;;;;;4998573;28;20038;-68
2024/01/29 11:24:45;;;;;;;15.15;9.88;;;9.30;99.90;;;;;;4996948;28;20304;-69
2024/01/29 11:27:12;;;;;;;14.90;9.38;;;9.10;99.90;;;;;;5027709;28;20056;-68
2024/01/29 11:29:38;;;;;;;12.98;9.68;;;9.10;99.90;;;;;;5013931;28;20207;-68
2024/01/29 11:32:12;;;;;;;13.30;9.05;;;9.10;99.90;;;;;;5012608;28;20175;-69
2024/01/29 11:34:40;;;;;;;12.75;9.43;;;9.10;99.90;;;;;;5015121;28;20465;-69
2024/01/29 11:37:07;;;;;;;12.27;9.48;;;9.10;99.90;;;;;;5015907;28;20037;-68
2024/01/29 11:39:42;;;;;;;14.60;10.05;;;9.10;99.90;;;;;;4996072;28;20046;-68
2024/01/29 11:42:09;;;;;;;13.68;9.30;;;9.20;99.90;;;;;;5012475;28;20076;-68
2024/01/29 11:44:36;;;;;;;12.27;9.80;;;9.10;99.90;;;;;;5008539;28;20071;-69
2024/01/29 11:47:09;;;;;;;15.95;10.10;;;9.00;99.90;;;;;;5012611;28;20144;-68
2024/01/29 11:49:35;;;;;;;14.43;9.80;;;8.80;99.90;;;;;;5005042;28;20120;-68
2024/01/29 11:52:01;;;;;;;11.50;9.75;;;8.80;99.90;;;;;;5026448;28;20067;-69
2024/01/29 11:54:26;;;;;;;13.68;9.55;;;8.80;99.90;;;;;;5030963;28;20037;-68
2024/01/29 11:56:52;;;;;;;14.52;10.25;;;8.80;99.90;;;;;;4995888;28;20434;-68
2024/01/29 11:59:18;;;;;;;13.77;10.73;;;8.80;99.90;;;;;;4996299;28;20095;-68
2024/01/29 12:01:44;;;;;;;12.13;10.48;;;8.80;99.90;;;;;;5013155;28;20515;-68
2024/01/29 12:04:11;;;;;;;15.80;11.18;;;8.80;99.90;;;;;;5012511;28;20125;-68
2024/01/29 12:06:37;;;;;;;14.55;10.13;;;8.80;99.90;;;;;;5009464;28;20125;-69
2024/01/29 12:09:09;;;;;;;14.43;10.88;;;8.80;99.90;;;;;;5012731;28;20672;-68
2024/01/29 12:11:35;;;;;;;15.90;11.07;;;8.80;99.90;;;;;;4997769;28;20572;-68
2024/01/29 12:14:00;;;;;;;18.50;11.25;;;8.90;99.90;;;;;;5007597;28;20033;-69
2024/01/29 12:16:27;;;;;;;14.55;11.20;;;8.90;99.90;;;;;;5013512;28;20056;-68
2024/01/29 12:18:55;;;;;;;18.10;11.07;;;8.90;99.90;;;;;;5012863;28;20464;-68
2024/01/29 12:21:25;;;;;;;17.02;11.63;;;9.00;99.90;;;;;;5009031;28;20041;-68
2024/01/29 12:23:55;;;;;;;15.40;11.35;;;9.00;99.90;;;;;;5032614;28;20303;-69
2024/01/29 12:26:27;;;;;;;15.80;10.90;;;9.10;99.90;;;;;;5014212;28;20089;-67
2024/01/29 12:28:54;;;;;;;16.20;11.02;;;9.10;99.90;;;;;;5031823;28;20123;-67
2024/01/29 12:31:21;;;;;;;18.65;11.75;;;9.10;99.90;;;;;;4994973;28;20345;-67
2024/01/29 12:33:47;;;;;;;14.00;11.57;;;9.10;99.90;;;;;;5022497;28;20104;-67
2024/01/29 12:36:15;;;;;;;15.52;11.18;;;9.20;99.90;;;;;;4997936;28;20057;-66
2024/01/29 12:38:42;;;;;;;19.30;13.20;;;9.20;99.90;;;;;;5013279;28;20580;-67
2024/01/29 12:41:08;;;;;;;18.15;11.90;;;9.20;99.90;;;;;;5009301;28;20466;-67
2024/01/29 12:43:34;;;;;;;15.13;11.25;;;9.20;99.90;;;;;;5018709;28;20456;-66
2024/01/29 12:46:04;;;;;;;19.17;12.25;;;9.20;99.90;;;;;;5012488;28;20053;-67
2024/01/29 12:48:31;;;;;;;17.73;12.07;;;9.20;99.90;;;;;;5007071;28;20272;-67